Mckinley Sea — WDE5024 — position and weather

sailwx.info

Track history (hours):
 
Tides and Currents Weather Stations Pressure Air Temp Water Temp Dewpoint Dewpoint Depression Visibility Wind Speed Wind Dir Waves Ship Positions

Mckinley Sea

Owner: Kirby Offshore Marine, LLC, Staten Island, NY. More information available from US FCC via Universal Licensing System and Coast Guard Vessel Documentation Center.

Last reported at 2015-Jan-29 13:28 UTC. Time now 2015-Jan-29 14:25 UTC.
Position N 42°08' W 070°31'.

Length 46 m; draft 7 m.

Type: Towing. MMSI: 367360980.

Date/timePositionNaut miles runAvg speedWind from/ knotsBaromVisibWave heightAir tempDewpointWater temp
2015-Jan-29 13:28N 42°08' W 070°31'31 9.7
2015-Jan-29 10:16N 42°39' W 070°32'7 9.8
2015-Jan-29 09:33N 42°46' W 070°35'19 9.5
2015-Jan-29 07:33N 43°04' W 070°42'  
2015-Jan-26 10:33N 43°04' W 070°44'2 2.0
2015-Jan-26 09:31N 43°03' W 070°42'10 3.3
2015-Jan-26 06:25N 42°53' W 070°38'5 6.1
2015-Jan-26 05:33N 42°48' W 070°36'16 5.1
2015-Jan-26 02:27N 42°32' W 070°39'6 6.7
2015-Jan-26 01:32N 42°28' W 070°45'6 0.2
2015-Jan-24 20:25N 42°22' W 070°47'66 6.1
2015-Jan-24 09:33N 41°19' W 071°16'8 8.3
2015-Jan-24 08:33N 41°18' W 071°27'9 8.6
2015-Jan-24 07:33N 41°17' W 071°38'8 8.1
2015-Jan-24 06:33N 41°16' W 071°49'7 7.4
2015-Jan-24 05:33N 41°14' W 071°59'6 6.1
2015-Jan-24 04:33N 41°14' W 072°07'6 5.9
2015-Jan-24 03:33N 41°13' W 072°14'6 6.2
2015-Jan-24 02:33N 41°11' W 072°22'2 1.9
2015-Jan-24 01:33N 41°11' W 072°25'7 7.0
2015-Jan-24 00:33N 41°08' W 072°33'9 8.7
2015-Jan-23 23:33N 41°06' W 072°45'19 9.0
2015-Jan-23 21:26N 41°02' W 073°09'8 9.0
2015-Jan-23 20:33N 41°01' W 073°20'9 8.7
2015-Jan-23 19:33N 40°58' W 073°31'12 8.3
2015-Jan-23 18:10N 40°52' W 073°44'6 6.9
2015-Jan-23 17:20N 40°48' W 073°49'6 6.8
2015-Jan-23 16:32N 40°47' W 073°56'6 5.9
2015-Jan-23 15:33N 40°42' W 074°00'5 4.5
2015-Jan-23 14:33N 40°39' W 074°05'0 0.0
2015-Jan-23 13:33N 40°39' W 074°05'0 0.0
2015-Jan-23 12:33N 40°39' W 074°05'0 0.0
2015-Jan-23 11:33N 40°39' W 074°05'0 0.0
2015-Jan-23 10:33N 40°39' W 074°05'0 0.0
2015-Jan-23 09:33N 40°39' W 074°05'0 0.0
2015-Jan-23 08:33N 40°39' W 074°05'0 0.0
2015-Jan-23 07:33N 40°39' W 074°05'0 0.0
2015-Jan-23 06:33N 40°39' W 074°05'0 0.0
2015-Jan-23 05:32N 40°39' W 074°05'0 0.0
2015-Jan-23 04:33N 40°39' W 074°05'0 0.0
2015-Jan-23 03:33N 40°39' W 074°05'0 0.0
2015-Jan-23 02:33N 40°39' W 074°05'4 3.5
2015-Jan-23 01:30N 40°39' W 074°10'0 0.0
2015-Jan-22 23:10N 40°39' W 074°10'4 6.1
2015-Jan-22 22:33N 40°39' W 074°05'0 0.0
2015-Jan-22 21:33N 40°39' W 074°05'0 0.0
2015-Jan-22 20:33N 40°39' W 074°05'2 1.7
2015-Jan-22 19:33N 40°39' W 074°03'0 0.0
2015-Jan-22 18:33N 40°39' W 074°03'0 0.0
2015-Jan-22 17:33N 40°39' W 074°03'0 0.2
2015-Jan-22 16:33N 40°40' W 074°03'0 0.1
2015-Jan-22 15:33N 40°40' W 074°03'0 0.0
2015-Jan-22 14:33N 40°40' W 074°03'0 0.0
2015-Jan-22 13:33N 40°40' W 074°03'0 0.0
2015-Jan-22 12:33N 40°40' W 074°03'0 0.2
2015-Jan-22 11:33N 40°39' W 074°03'0 0.1
2015-Jan-22 10:33N 40°39' W 074°03'0 0.0
2015-Jan-22 09:33N 40°39' W 074°03'0 0.0
2015-Jan-22 08:33N 40°39' W 074°03'0 0.0
2015-Jan-22 07:33N 40°39' W 074°03'0 0.0
2015-Jan-22 06:33N 40°39' W 074°03'0 0.0
2015-Jan-22 05:33N 40°39' W 074°03'0 0.1
2015-Jan-22 04:33N 40°39' W 074°03'0 0.2
2015-Jan-22 03:33N 40°40' W 074°03'0 0.1
2015-Jan-22 02:33N 40°40' W 074°03'0 0.0
2015-Jan-22 01:33N 40°40' W 074°03'0 0.0
2015-Jan-22 00:33N 40°40' W 074°03'0 0.2
2015-Jan-21 23:33N 40°39' W 074°03'0 0.1
2015-Jan-21 22:50N 40°39' W 074°03'0 0.1
2015-Jan-21 22:46N 40°39' W 074°03'0 0.1
2015-Jan-21 22:33N 40°39' W 074°03'0 0.0
2015-Jan-21 21:33N 40°39' W 074°03'0 0.0
2015-Jan-21 20:33N 40°39' W 074°03'0 0.0
2015-Jan-21 19:33N 40°39' W 074°03'0 0.0
2015-Jan-21 18:33N 40°39' W 074°03'0 0.0
2015-Jan-21 17:33N 40°39' W 074°03'0 0.0
2015-Jan-21 16:33N 40°39' W 074°03'0 0.2
2015-Jan-21 15:33N 40°40' W 074°03'0 0.0
2015-Jan-21 14:33N 40°40' W 074°03'0 0.0
2015-Jan-21 13:33N 40°40' W 074°03'0 0.0
2015-Jan-21 12:33N 40°40' W 074°03'0 0.0
2015-Jan-21 11:33N 40°40' W 074°03'0 0.2
2015-Jan-21 10:33N 40°39' W 074°03'0 0.1
2015-Jan-21 09:33N 40°39' W 074°03'0 0.0
2015-Jan-21 08:33N 40°39' W 074°03'0 0.0
2015-Jan-21 07:33N 40°39' W 074°03'0 0.0
2015-Jan-21 06:33N 40°39' W 074°03'0 0.0
2015-Jan-21 05:33N 40°39' W 074°03'0 0.0
2015-Jan-21 04:33N 40°39' W 074°03'0 0.1
2015-Jan-21 03:33N 40°39' W 074°03'0 0.2
2015-Jan-21 02:33N 40°40' W 074°03'0 0.0
2015-Jan-21 01:33N 40°40' W 074°03'0 0.0
2015-Jan-21 00:33N 40°40' W 074°03'0 0.0
2015-Jan-20 23:33N 40°40' W 074°03'0 0.2
2015-Jan-20 22:33N 40°39' W 074°03'0 0.0
2015-Jan-20 21:33N 40°39' W 074°03'0 0.0
2015-Jan-20 20:33N 40°39' W 074°03'0 0.0
2015-Jan-20 19:33N 40°39' W 074°03'0 0.0
2015-Jan-20 18:33N 40°39' W 074°03'0 0.0
2015-Jan-20 17:33N 40°39' W 074°03'0 0.0
2015-Jan-20 16:33N 40°39' W 074°03'0 0.1
2015-Jan-20 15:33N 40°39' W 074°03'0 0.2
2015-Jan-20 14:33N 40°40' W 074°03'0 0.1
2015-Jan-20 13:33N 40°40' W 074°03'0 0.0
2015-Jan-20 12:33N 40°40' W 074°03'0 0.1
2015-Jan-20 11:32N 40°40' W 074°03'6 5.9
2015-Jan-20 10:31N 40°34' W 074°02'8 7.7
2015-Jan-20 09:30N 40°29' W 073°53'6 6.2
2015-Jan-20 08:33N 40°31' W 073°46'10 6.6
2015-Jan-20 07:06N 40°32' W 073°33'4 6.6
2015-Jan-20 06:30N 40°32' W 073°28'3 0.3
2015-Jan-19 21:10N 40°33' W 073°24'4 5.7
2015-Jan-19 20:32N 40°32' W 073°29'21 6.5
2015-Jan-19 17:22N 40°30' W 073°56'8 9.2
2015-Jan-19 16:28N 40°36' W 074°03'6 7.0
2015-Jan-19 15:32N 40°39' W 074°10'2 1.4
2015-Jan-19 14:20N 40°38' W 074°12'  
Track history (hours):
 
Tides and Currents Weather Stations Pressure Air Temp Water Temp Dewpoint Dewpoint Depression Visibility Wind Speed Wind Dir Waves Ship Positions

Mckinley Sea

Owner: Kirby Offshore Marine, LLC, Staten Island, NY. More information available from US FCC via Universal Licensing System and Coast Guard Vessel Documentation Center.

Last reported at 2015-Jan-29 13:28 UTC. Time now 2015-Jan-29 14:25 UTC.
Position N 42°08' W 070°31'.

Length 46 m; draft 7 m.

Type: Towing. MMSI: 367360980.

Date/timePositionNaut miles runAvg speedWind from/ knotsBaromVisibWave heightAir tempDewpointWater temp
2015-Jan-29 13:28N 42°08' W 070°31'31 9.7
2015-Jan-29 10:16N 42°39' W 070°32'7 9.8
2015-Jan-29 09:33N 42°46' W 070°35'19 9.5
2015-Jan-29 07:33N 43°04' W 070°42'  
2015-Jan-26 10:33N 43°04' W 070°44'2 2.0
2015-Jan-26 09:31N 43°03' W 070°42'10 3.3
2015-Jan-26 06:25N 42°53' W 070°38'5 6.1
2015-Jan-26 05:33N 42°48' W 070°36'16 5.1
2015-Jan-26 02:27N 42°32' W 070°39'6 6.7
2015-Jan-26 01:32N 42°28' W 070°45'6 0.2
2015-Jan-24 20:25N 42°22' W 070°47'66 6.1
2015-Jan-24 09:33N 41°19' W 071°16'8 8.3
2015-Jan-24 08:33N 41°18' W 071°27'9 8.6
2015-Jan-24 07:33N 41°17' W 071°38'8 8.1
2015-Jan-24 06:33N 41°16' W 071°49'7 7.4
2015-Jan-24 05:33N 41°14' W 071°59'6 6.1
2015-Jan-24 04:33N 41°14' W 072°07'6 5.9
2015-Jan-24 03:33N 41°13' W 072°14'6 6.2
2015-Jan-24 02:33N 41°11' W 072°22'2 1.9
2015-Jan-24 01:33N 41°11' W 072°25'7 7.0
2015-Jan-24 00:33N 41°08' W 072°33'9 8.7
2015-Jan-23 23:33N 41°06' W 072°45'19 9.0
2015-Jan-23 21:26N 41°02' W 073°09'8 9.0
2015-Jan-23 20:33N 41°01' W 073°20'9 8.7
2015-Jan-23 19:33N 40°58' W 073°31'12 8.3
2015-Jan-23 18:10N 40°52' W 073°44'6 6.9
2015-Jan-23 17:20N 40°48' W 073°49'6 6.8
2015-Jan-23 16:32N 40°47' W 073°56'6 5.9
2015-Jan-23 15:33N 40°42' W 074°00'5 4.5
2015-Jan-23 14:33N 40°39' W 074°05'0 0.0
2015-Jan-23 13:33N 40°39' W 074°05'0 0.0
2015-Jan-23 12:33N 40°39' W 074°05'0 0.0
2015-Jan-23 11:33N 40°39' W 074°05'0 0.0
2015-Jan-23 10:33N 40°39' W 074°05'0 0.0
2015-Jan-23 09:33N 40°39' W 074°05'0 0.0
2015-Jan-23 08:33N 40°39' W 074°05'0 0.0
2015-Jan-23 07:33N 40°39' W 074°05'0 0.0
2015-Jan-23 06:33N 40°39' W 074°05'0 0.0
2015-Jan-23 05:32N 40°39' W 074°05'0 0.0
2015-Jan-23 04:33N 40°39' W 074°05'0 0.0
2015-Jan-23 03:33N 40°39' W 074°05'0 0.0
2015-Jan-23 02:33N 40°39' W 074°05'4 3.5
2015-Jan-23 01:30N 40°39' W 074°10'0 0.0
2015-Jan-22 23:10N 40°39' W 074°10'4 6.1
2015-Jan-22 22:33N 40°39' W 074°05'0 0.0
2015-Jan-22 21:33N 40°39' W 074°05'0 0.0
2015-Jan-22 20:33N 40°39' W 074°05'2 1.7
2015-Jan-22 19:33N 40°39' W 074°03'0 0.0
2015-Jan-22 18:33N 40°39' W 074°03'0 0.0
2015-Jan-22 17:33N 40°39' W 074°03'0 0.2
2015-Jan-22 16:33N 40°40' W 074°03'0 0.1
2015-Jan-22 15:33N 40°40' W 074°03'0 0.0
2015-Jan-22 14:33N 40°40' W 074°03'0 0.0
2015-Jan-22 13:33N 40°40' W 074°03'0 0.0
2015-Jan-22 12:33N 40°40' W 074°03'0 0.2
2015-Jan-22 11:33N 40°39' W 074°03'0 0.1
2015-Jan-22 10:33N 40°39' W 074°03'0 0.0
2015-Jan-22 09:33N 40°39' W 074°03'0 0.0
2015-Jan-22 08:33N 40°39' W 074°03'0 0.0
2015-Jan-22 07:33N 40°39' W 074°03'0 0.0
2015-Jan-22 06:33N 40°39' W 074°03'0 0.0
2015-Jan-22 05:33N 40°39' W 074°03'0 0.1
2015-Jan-22 04:33N 40°39' W 074°03'0 0.2
2015-Jan-22 03:33N 40°40' W 074°03'0 0.1
2015-Jan-22 02:33N 40°40' W 074°03'0 0.0
2015-Jan-22 01:33N 40°40' W 074°03'0 0.0
2015-Jan-22 00:33N 40°40' W 074°03'0 0.2
2015-Jan-21 23:33N 40°39' W 074°03'0 0.1
2015-Jan-21 22:50N 40°39' W 074°03'0 0.1
2015-Jan-21 22:46N 40°39' W 074°03'0 0.1
2015-Jan-21 22:33N 40°39' W 074°03'0 0.0
2015-Jan-21 21:33N 40°39' W 074°03'0 0.0
2015-Jan-21 20:33N 40°39' W 074°03'0 0.0
2015-Jan-21 19:33N 40°39' W 074°03'0 0.0
2015-Jan-21 18:33N 40°39' W 074°03'0 0.0
2015-Jan-21 17:33N 40°39' W 074°03'0 0.0
2015-Jan-21 16:33N 40°39' W 074°03'0 0.2
2015-Jan-21 15:33N 40°40' W 074°03'0 0.0
2015-Jan-21 14:33N 40°40' W 074°03'0 0.0
2015-Jan-21 13:33N 40°40' W 074°03'0 0.0
2015-Jan-21 12:33N 40°40' W 074°03'0 0.0
2015-Jan-21 11:33N 40°40' W 074°03'0 0.2
2015-Jan-21 10:33N 40°39' W 074°03'0 0.1
2015-Jan-21 09:33N 40°39' W 074°03'0 0.0
2015-Jan-21 08:33N 40°39' W 074°03'0 0.0
2015-Jan-21 07:33N 40°39' W 074°03'0 0.0
2015-Jan-21 06:33N 40°39' W 074°03'0 0.0
2015-Jan-21 05:33N 40°39' W 074°03'0 0.0
2015-Jan-21 04:33N 40°39' W 074°03'0 0.1
2015-Jan-21 03:33N 40°39' W 074°03'0 0.2
2015-Jan-21 02:33N 40°40' W 074°03'0 0.0
2015-Jan-21 01:33N 40°40' W 074°03'0 0.0
2015-Jan-21 00:33N 40°40' W 074°03'0 0.0
2015-Jan-20 23:33N 40°40' W 074°03'0 0.2
2015-Jan-20 22:33N 40°39' W 074°03'0 0.0
2015-Jan-20 21:33N 40°39' W 074°03'0 0.0
2015-Jan-20 20:33N 40°39' W 074°03'0 0.0
2015-Jan-20 19:33N 40°39' W 074°03'0 0.0
2015-Jan-20 18:33N 40°39' W 074°03'0 0.0
2015-Jan-20 17:33N 40°39' W 074°03'0 0.0
2015-Jan-20 16:33N 40°39' W 074°03'0 0.1
2015-Jan-20 15:33N 40°39' W 074°03'0 0.2
2015-Jan-20 14:33N 40°40' W 074°03'0 0.1
2015-Jan-20 13:33N 40°40' W 074°03'0 0.0
2015-Jan-20 12:33N 40°40' W 074°03'0 0.1
2015-Jan-20 11:32N 40°40' W 074°03'6 5.9
2015-Jan-20 10:31N 40°34' W 074°02'8 7.7
2015-Jan-20 09:30N 40°29' W 073°53'6 6.2
2015-Jan-20 08:33N 40°31' W 073°46'10 6.6
2015-Jan-20 07:06N 40°32' W 073°33'4 6.6
2015-Jan-20 06:30N 40°32' W 073°28'3 0.3
2015-Jan-19 21:10N 40°33' W 073°24'4 5.7
2015-Jan-19 20:32N 40°32' W 073°29'21 6.5
2015-Jan-19 17:22N 40°30' W 073°56'8 9.2
2015-Jan-19 16:28N 40°36' W 074°03'6 7.0
2015-Jan-19 15:32N 40°39' W 074°10'2 1.4
2015-Jan-19 14:20N 40°38' W 074°12'  

Dump ship's entire track history